sensor_id;sensor_type;location;lat;lon;timestamp;P1;durP1;ratioP1;P2;durP2;ratioP2
57893;SDS011;43710;47.460;19.034;2024-03-22T05:03:20;29.55;;;16.75;;
57893;SDS011;43710;47.460;19.034;2024-03-22T05:06:22;29.25;;;18.70;;
57893;SDS011;43710;47.460;19.034;2024-03-22T05:09:23;21.80;;;16.52;;
57893;SDS011;43710;47.460;19.034;2024-03-22T05:12:24;24.90;;;17.48;;
57893;SDS011;43710;47.460;19.034;2024-03-22T05:15:26;26.05;;;16.92;;
57893;SDS011;43710;47.460;19.034;2024-03-22T05:18:28;25.02;;;16.58;;
57893;SDS011;43710;47.460;19.034;2024-03-22T05:21:29;22.58;;;17.48;;
57893;SDS011;43710;47.460;19.034;2024-03-22T05:24:31;27.87;;;17.27;;
57893;SDS011;43710;47.460;19.034;2024-03-22T05:27:32;27.37;;;17.90;;
57893;SDS011;43710;47.460;19.034;2024-03-22T05:30:34;24.50;;;17.27;;
57893;SDS011;43710;47.460;19.034;2024-03-22T05:33:35;29.63;;;18.15;;
57893;SDS011;43710;47.460;19.034;2024-03-22T05:36:37;29.02;;;16.85;;
57893;SDS011;43710;47.460;19.034;2024-03-22T05:39:38;21.90;;;15.55;;
57893;SDS011;43710;47.460;19.034;2024-03-22T05:42:41;29.73;;;16.70;;
57893;SDS011;43710;47.460;19.034;2024-03-22T05:45:43;27.92;;;18.37;;
57893;SDS011;43710;47.460;19.034;2024-03-22T05:48:44;26.12;;;17.15;;
57893;SDS011;43710;47.460;19.034;2024-03-22T05:51:45;29.50;;;17.98;;
57893;SDS011;43710;47.460;19.034;2024-03-22T05:54:47;25.48;;;17.55;;
57893;SDS011;43710;47.460;19.034;2024-03-22T05:57:49;31.90;;;17.37;;
57893;SDS011;43710;47.460;19.034;2024-03-22T06:00:50;24.58;;;17.08;;
57893;SDS011;43710;47.460;19.034;2024-03-22T06:03:52;23.42;;;15.95;;
57893;SDS011;43710;47.460;19.034;2024-03-22T06:06:53;32.25;;;17.45;;
57893;SDS011;43710;47.460;19.034;2024-03-22T06:09:55;24.55;;;16.02;;
57893;SDS011;43710;47.460;19.034;2024-03-22T06:12:56;21.45;;;16.40;;
57893;SDS011;43710;47.460;19.034;2024-03-22T06:15:58;22.30;;;16.87;;
57893;SDS011;43710;47.460;19.034;2024-03-22T06:18:59;33.50;;;17.15;;
57893;SDS011;43710;47.460;19.034;2024-03-22T06:22:00;23.92;;;16.73;;
57893;SDS011;43710;47.460;19.034;2024-03-22T06:25:03;21.77;;;15.95;;
57893;SDS011;43710;47.460;19.034;2024-03-22T06:28:05;21.70;;;16.12;;
57893;SDS011;43710;47.460;19.034;2024-03-22T06:31:07;23.27;;;16.70;;
57893;SDS011;43710;47.460;19.034;2024-03-22T06:34:09;24.52;;;18.02;;
57893;SDS011;43710;47.460;19.034;2024-03-22T06:37:10;24.35;;;15.82;;
57893;SDS011;43710;47.460;19.034;2024-03-22T06:40:11;22.08;;;16.98;;
57893;SDS011;43710;47.460;19.034;2024-03-22T06:43:13;31.92;;;16.92;;
57893;SDS011;43710;47.460;19.034;2024-03-22T06:46:14;31.75;;;16.75;;
57893;SDS011;43710;47.460;19.034;2024-03-22T06:49:16;20.73;;;16.23;;
57893;SDS011;43710;47.460;19.034;2024-03-22T06:52:18;21.30;;;16.45;;
57893;SDS011;43710;47.460;19.034;2024-03-22T06:55:21;23.08;;;16.12;;
57893;SDS011;43710;47.460;19.034;2024-03-22T06:58:23;23.45;;;16.98;;
57893;SDS011;43710;47.460;19.034;2024-03-22T07:01:25;25.75;;;15.85;;
57893;SDS011;43710;47.460;19.034;2024-03-22T07:04:28;28.67;;;16.02;;
57893;SDS011;43710;47.460;19.034;2024-03-22T07:07:30;22.15;;;15.93;;
57893;SDS011;43710;47.460;19.034;2024-03-22T07:10:31;24.23;;;17.15;;
57893;SDS011;43710;47.460;19.034;2024-03-22T07:13:33;23.12;;;16.62;;
57893;SDS011;43710;47.460;19.034;2024-03-22T07:16:35;20.52;;;15.23;;
57893;SDS011;43710;47.460;19.034;2024-03-22T07:19:38;20.52;;;15.07;;
57893;SDS011;43710;47.460;19.034;2024-03-22T07:22:39;22.08;;;15.85;;
57893;SDS011;43710;47.460;19.034;2024-03-22T07:25:40;21.75;;;15.38;;
57893;SDS011;43710;47.460;19.034;2024-03-22T07:28:47;23.10;;;15.43;;
57893;SDS011;43710;47.460;19.034;2024-03-22T07:31:48;21.02;;;16.10;;
57893;SDS011;43710;47.460;19.034;2024-03-22T07:34:49;21.73;;;14.65;;
57893;SDS011;43710;47.460;19.034;2024-03-22T07:37:50;22.00;;;14.77;;
57893;SDS011;43710;47.460;19.034;2024-03-22T07:40:52;25.55;;;16.35;;
57893;SDS011;43710;47.460;19.034;2024-03-22T07:43:53;24.05;;;16.02;;
57893;SDS011;43710;47.460;19.034;2024-03-22T07:46:55;21.40;;;16.67;;
57893;SDS011;43710;47.460;19.034;2024-03-22T07:49:56;23.45;;;16.95;;
57893;SDS011;43710;47.460;19.034;2024-03-22T07:52:58;22.42;;;16.17;;
57893;SDS011;43710;47.460;19.034;2024-03-22T07:56:01;24.70;;;16.90;;
57893;SDS011;43710;47.460;19.034;2024-03-22T07:59:02;25.00;;;17.27;;
57893;SDS011;43710;47.460;19.034;2024-03-22T08:02:03;23.98;;;16.48;;
57893;SDS011;43710;47.460;19.034;2024-03-22T08:05:06;25.10;;;16.73;;
57893;SDS011;43710;47.460;19.034;2024-03-22T08:08:07;33.00;;;16.65;;
57893;SDS011;43710;47.460;19.034;2024-03-22T08:11:09;20.90;;;15.80;;
57893;SDS011;43710;47.460;19.034;2024-03-22T08:14:10;21.30;;;15.98;;
57893;SDS011;43710;47.460;19.034;2024-03-22T08:17:11;18.70;;;15.40;;
57893;SDS011;43710;47.460;19.034;2024-03-22T08:20:13;21.73;;;15.18;;
57893;SDS011;43710;47.460;19.034;2024-03-22T08:23:14;21.50;;;15.70;;
57893;SDS011;43710;47.460;19.034;2024-03-22T08:26:15;24.10;;;16.27;;
57893;SDS011;43710;47.460;19.034;2024-03-22T08:29:17;27.75;;;17.33;;
57893;SDS011;43710;47.460;19.034;2024-03-22T08:32:18;20.33;;;15.40;;
57893;SDS011;43710;47.460;19.034;2024-03-22T08:35:20;20.50;;;16.20;;
57893;SDS011;43710;47.460;19.034;2024-03-22T08:38:21;20.85;;;15.60;;
57893;SDS011;43710;47.460;19.034;2024-03-22T08:41:23;21.10;;;14.98;;
57893;SDS011;43710;47.460;19.034;2024-03-22T08:44:24;19.83;;;15.13;;
57893;SDS011;43710;47.460;19.034;2024-03-22T08:47:26;22.98;;;15.55;;
57893;SDS011;43710;47.460;19.034;2024-03-22T08:50:27;21.60;;;16.05;;
57893;SDS011;43710;47.460;19.034;2024-03-22T08:53:28;23.02;;;16.37;;
57893;SDS011;43710;47.460;19.034;2024-03-22T08:56:30;20.73;;;15.57;;
57893;SDS011;43710;47.460;19.034;2024-03-22T08:59:31;21.00;;;15.02;;
57893;SDS011;43710;47.460;19.034;2024-03-22T09:02:32;22.08;;;16.80;;
57893;SDS011;43710;47.460;19.034;2024-03-22T09:05:35;20.98;;;14.85;;
57893;SDS011;43710;47.460;19.034;2024-03-22T09:08:37;19.25;;;15.88;;
57893;SDS011;43710;47.460;19.034;2024-03-22T09:11:38;17.80;;;14.43;;
57893;SDS011;43710;47.460;19.034;2024-03-22T09:14:40;19.20;;;14.90;;
57893;SDS011;43710;47.460;19.034;2024-03-22T09:17:42;18.95;;;14.63;;
57893;SDS011;43710;47.460;19.034;2024-03-22T09:20:43;20.65;;;14.50;;
57893;SDS011;43710;47.460;19.034;2024-03-22T09:23:44;19.50;;;13.70;;
57893;SDS011;43710;47.460;19.034;2024-03-22T09:26:46;18.83;;;14.10;;
57893;SDS011;43710;47.460;19.034;2024-03-22T09:29:48;19.73;;;15.38;;
57893;SDS011;43710;47.460;19.034;2024-03-22T09:32:50;17.73;;;15.38;;
57893;SDS011;43710;47.460;19.034;2024-03-22T09:35:53;18.95;;;15.27;;
57893;SDS011;43710;47.460;19.034;2024-03-22T09:38:54;18.80;;;15.15;;
57893;SDS011;43710;47.460;19.034;2024-03-22T09:41:56;20.12;;;16.27;;
57893;SDS011;43710;47.460;19.034;2024-03-22T09:44:59;17.30;;;14.60;;
57893;SDS011;43710;47.460;19.034;2024-03-22T09:48:01;19.35;;;15.77;;
57893;SDS011;43710;47.460;19.034;2024-03-22T09:51:03;19.70;;;14.00;;
57893;SDS011;43710;47.460;19.034;2024-03-22T09:54:05;17.77;;;14.82;;
57893;SDS011;43710;47.460;19.034;2024-03-22T09:57:07;18.95;;;14.85;;
57893;SDS011;43710;47.460;19.034;2024-03-22T10:00:15;20.92;;;14.90;;
57893;SDS011;43710;47.460;19.034;2024-03-22T10:03:19;22.15;;;14.87;;
57893;SDS011;43710;47.460;19.034;2024-03-22T10:06:22;17.55;;;14.15;;
57893;SDS011;43710;47.460;19.034;2024-03-22T10:09:30;19.70;;;13.88;;
57893;SDS011;43710;47.460;19.034;2024-03-22T10:12:32;18.95;;;13.98;;
57893;SDS011;43710;47.460;19.034;2024-03-22T10:15:33;16.37;;;14.48;;
57893;SDS011;43710;47.460;19.034;2024-03-22T10:18:35;22.05;;;13.43;;
57893;SDS011;43710;47.460;19.034;2024-03-22T10:21:36;15.90;;;12.90;;
57893;SDS011;43710;47.460;19.034;2024-03-22T10:24:38;16.58;;;13.18;;
57893;SDS011;43710;47.460;19.034;2024-03-22T10:27:39;20.65;;;14.85;;
57893;SDS011;43710;47.460;19.034;2024-03-22T10:30:41;17.37;;;12.57;;
57893;SDS011;43710;47.460;19.034;2024-03-22T10:33:44;16.83;;;12.93;;
57893;SDS011;43710;47.460;19.034;2024-03-22T10:36:46;16.87;;;14.20;;
57893;SDS011;43710;47.460;19.034;2024-03-22T10:39:48;16.83;;;13.10;;
57893;SDS011;43710;47.460;19.034;2024-03-22T10:42:51;17.45;;;14.02;;
57893;SDS011;43710;47.460;19.034;2024-03-22T10:45:53;19.52;;;13.38;;
57893;SDS011;43710;47.460;19.034;2024-03-22T10:49:00;15.95;;;12.57;;
57893;SDS011;43710;47.460;19.034;2024-03-22T10:52:06;16.35;;;11.98;;
57893;SDS011;43710;47.460;19.034;2024-03-22T10:55:12;17.55;;;12.40;;
57893;SDS011;43710;47.460;19.034;2024-03-22T10:58:21;14.43;;;10.60;;
57893;SDS011;43710;47.460;19.034;2024-03-22T11:01:24;14.40;;;11.27;;
57893;SDS011;43710;47.460;19.034;2024-03-22T11:04:29;14.85;;;11.57;;
57893;SDS011;43710;47.460;19.034;2024-03-22T11:07:31;14.63;;;10.32;;
57893;SDS011;43710;47.460;19.034;2024-03-22T11:10:33;17.17;;;12.40;;
57893;SDS011;43710;47.460;19.034;2024-03-22T11:13:38;18.33;;;12.77;;
57893;SDS011;43710;47.460;19.034;2024-03-22T11:16:44;13.17;;;11.03;;
57893;SDS011;43710;47.460;19.034;2024-03-22T11:19:46;11.30;;;9.52;;
57893;SDS011;43710;47.460;19.034;2024-03-22T11:22:48;11.52;;;9.10;;
57893;SDS011;43710;47.460;19.034;2024-03-22T11:25:49;14.60;;;10.65;;
57893;SDS011;43710;47.460;19.034;2024-03-22T11:28:50;12.93;;;9.05;;
57893;SDS011;43710;47.460;19.034;2024-03-22T11:31:52;14.05;;;11.40;;
57893;SDS011;43710;47.460;19.034;2024-03-22T11:34:53;12.20;;;10.15;;
57893;SDS011;43710;47.460;19.034;2024-03-22T11:37:55;11.85;;;9.10;;
57893;SDS011;43710;47.460;19.034;2024-03-22T11:40:58;12.18;;;9.55;;
57893;SDS011;43710;47.460;19.034;2024-03-22T11:44:02;13.10;;;8.55;;
57893;SDS011;43710;47.460;19.034;2024-03-22T11:47:04;8.77;;;6.72;;
57893;SDS011;43710;47.460;19.034;2024-03-22T11:50:05;11.12;;;7.43;;
57893;SDS011;43710;47.460;19.034;2024-03-22T11:53:07;11.40;;;7.80;;
57893;SDS011;43710;47.460;19.034;2024-03-22T11:56:09;11.75;;;8.23;;
57893;SDS011;43710;47.460;19.034;2024-03-22T11:59:10;12.82;;;8.25;;
57893;SDS011;43710;47.460;19.034;2024-03-22T12:02:12;12.40;;;6.97;;
57893;SDS011;43710;47.460;19.034;2024-03-22T12:05:14;11.12;;;6.78;;
57893;SDS011;43710;47.460;19.034;2024-03-22T12:08:16;12.82;;;7.35;;
57893;SDS011;43710;47.460;19.034;2024-03-22T12:11:19;9.32;;;7.37;;
57893;SDS011;43710;47.460;19.034;2024-03-22T12:14:20;10.50;;;7.90;;
57893;SDS011;43710;47.460;19.034;2024-03-22T12:17:21;15.60;;;8.93;;
57893;SDS011;43710;47.460;19.034;2024-03-22T12:20:23;12.25;;;9.05;;
57893;SDS011;43710;47.460;19.034;2024-03-22T12:23:24;17.35;;;9.52;;
57893;SDS011;43710;47.460;19.034;2024-03-22T12:26:25;13.82;;;8.25;;
57893;SDS011;43710;47.460;19.034;2024-03-22T12:29:27;11.98;;;8.40;;
57893;SDS011;43710;47.460;19.034;2024-03-22T12:32:29;12.75;;;8.88;;
57893;SDS011;43710;47.460;19.034;2024-03-22T12:35:30;12.57;;;9.32;;
57893;SDS011;43710;47.460;19.034;2024-03-22T12:38:33;12.73;;;8.95;;
57893;SDS011;43710;47.460;19.034;2024-03-22T12:41:35;17.00;;;10.50;;
57893;SDS011;43710;47.460;19.034;2024-03-22T12:44:36;14.25;;;10.25;;
57893;SDS011;43710;47.460;19.034;2024-03-22T12:47:38;12.95;;;9.25;;
57893;SDS011;43710;47.460;19.034;2024-03-22T12:50:39;14.05;;;10.50;;
57893;SDS011;43710;47.460;19.034;2024-03-22T12:53:41;11.75;;;9.98;;
57893;SDS011;43710;47.460;19.034;2024-03-22T12:56:43;10.55;;;8.90;;
57893;SDS011;43710;47.460;19.034;2024-03-22T12:59:44;13.27;;;10.65;;
57893;SDS011;43710;47.460;19.034;2024-03-22T13:02:47;13.70;;;10.82;;
57893;SDS011;43710;47.460;19.034;2024-03-22T13:05:49;13.25;;;10.63;;
57893;SDS011;43710;47.460;19.034;2024-03-22T13:08:50;13.23;;;10.38;;
57893;SDS011;43710;47.460;19.034;2024-03-22T13:11:52;11.35;;;9.70;;
57893;SDS011;43710;47.460;19.034;2024-03-22T13:14:54;12.40;;;9.52;;
57893;SDS011;43710;47.460;19.034;2024-03-22T13:17:56;13.38;;;10.65;;
57893;SDS011;43710;47.460;19.034;2024-03-22T13:20:57;14.50;;;10.85;;
57893;SDS011;43710;47.460;19.034;2024-03-22T13:23:59;14.27;;;11.38;;
57893;SDS011;43710;47.460;19.034;2024-03-22T13:27:00;12.70;;;10.45;;
57893;SDS011;43710;47.460;19.034;2024-03-22T13:30:01;14.57;;;10.90;;
57893;SDS011;43710;47.460;19.034;2024-03-22T13:33:03;18.05;;;11.93;;
57893;SDS011;43710;47.460;19.034;2024-03-22T13:36:05;16.87;;;13.05;;
57893;SDS011;43710;47.460;19.034;2024-03-22T13:39:06;15.32;;;11.63;;
57893;SDS011;43710;47.460;19.034;2024-03-22T13:42:11;15.20;;;12.00;;
57893;SDS011;43710;47.460;19.034;2024-03-22T13:45:13;15.10;;;12.13;;
57893;SDS011;43710;47.460;19.034;2024-03-22T13:48:14;13.93;;;11.48;;
57893;SDS011;43710;47.460;19.034;2024-03-22T13:51:15;14.13;;;10.88;;
57893;SDS011;43710;47.460;19.034;2024-03-22T13:54:17;15.13;;;11.93;;
57893;SDS011;43710;47.460;19.034;2024-03-22T13:57:18;13.62;;;10.52;;
57893;SDS011;43710;47.460;19.034;2024-03-22T14:00:20;11.25;;;9.15;;
57893;SDS011;43710;47.460;19.034;2024-03-22T14:03:21;13.00;;;9.50;;
57893;SDS011;43710;47.460;19.034;2024-03-22T14:06:23;10.48;;;8.32;;
57893;SDS011;43710;47.460;19.034;2024-03-22T14:09:24;11.57;;;9.07;;
57893;SDS011;43710;47.460;19.034;2024-03-22T14:12:27;14.63;;;8.52;;
57893;SDS011;43710;47.460;19.034;2024-03-22T14:15:28;11.70;;;8.65;;
57893;SDS011;43710;47.460;19.034;2024-03-22T14:18:32;12.30;;;8.98;;
57893;SDS011;43710;47.460;19.034;2024-03-22T14:21:34;13.35;;;9.77;;
57893;SDS011;43710;47.460;19.034;2024-03-22T14:24:36;10.23;;;8.35;;
57893;SDS011;43710;47.460;19.034;2024-03-22T14:27:38;14.27;;;8.45;;
57893;SDS011;43710;47.460;19.034;2024-03-22T14:30:39;13.32;;;9.48;;
57893;SDS011;43710;47.460;19.034;2024-03-22T14:33:41;11.40;;;9.07;;
57893;SDS011;43710;47.460;19.034;2024-03-22T14:36:43;11.12;;;7.97;;
57893;SDS011;43710;47.460;19.034;2024-03-22T14:39:45;11.93;;;9.00;;
57893;SDS011;43710;47.460;19.034;2024-03-22T14:42:47;12.32;;;7.87;;
57893;SDS011;43710;47.460;19.034;2024-03-22T14:45:48;10.60;;;8.40;;
57893;SDS011;43710;47.460;19.034;2024-03-22T14:48:50;11.20;;;8.00;;
57893;SDS011;43710;47.460;19.034;2024-03-22T14:51:52;10.55;;;6.85;;
57893;SDS011;43710;47.460;19.034;2024-03-22T14:54:53;13.62;;;7.75;;
57893;SDS011;43710;47.460;19.034;2024-03-22T14:57:55;9.02;;;6.72;;
57893;SDS011;43710;47.460;19.034;2024-03-22T15:00:57;9.90;;;7.00;;
57893;SDS011;43710;47.460;19.034;2024-03-22T15:04:01;9.02;;;6.22;;
57893;SDS011;43710;47.460;19.034;2024-03-22T15:07:03;7.65;;;5.18;;
57893;SDS011;43710;47.460;19.034;2024-03-22T15:10:04;8.73;;;4.82;;
57893;SDS011;43710;47.460;19.034;2024-03-22T15:13:06;6.62;;;4.12;;
57893;SDS011;43710;47.460;19.034;2024-03-22T15:16:07;7.40;;;4.80;;
57893;SDS011;43710;47.460;19.034;2024-03-22T15:19:09;8.77;;;5.07;;
57893;SDS011;43710;47.460;19.034;2024-03-22T15:22:11;8.70;;;4.32;;
57893;SDS011;43710;47.460;19.034;2024-03-22T15:25:12;7.40;;;4.50;;
57893;SDS011;43710;47.460;19.034;2024-03-22T15:28:14;14.48;;;4.87;;
57893;SDS011;43710;47.460;19.034;2024-03-22T15:31:15;8.15;;;4.95;;
57893;SDS011;43710;47.460;19.034;2024-03-22T15:34:17;9.60;;;4.72;;
57893;SDS011;43710;47.460;19.034;2024-03-22T15:37:18;10.13;;;5.60;;
57893;SDS011;43710;47.460;19.034;2024-03-22T15:40:19;8.02;;;5.55;;
57893;SDS011;43710;47.460;19.034;2024-03-22T15:43:21;8.68;;;4.87;;
57893;SDS011;43710;47.460;19.034;2024-03-22T15:46:22;6.37;;;4.82;;
57893;SDS011;43710;47.460;19.034;2024-03-22T15:49:24;6.85;;;4.85;;
57893;SDS011;43710;47.460;19.034;2024-03-22T15:52:25;5.97;;;4.15;;
57893;SDS011;43710;47.460;19.034;2024-03-22T15:55:26;8.75;;;4.90;;
57893;SDS011;43710;47.460;19.034;2024-03-22T15:58:31;7.20;;;4.30;;
57893;SDS011;43710;47.460;19.034;2024-03-22T16:01:32;6.43;;;3.97;;
57893;SDS011;43710;47.460;19.034;2024-03-22T16:04:34;7.90;;;4.75;;
57893;SDS011;43710;47.460;19.034;2024-03-22T16:07:35;6.87;;;4.37;;
57893;SDS011;43710;47.460;19.034;2024-03-22T16:10:36;7.25;;;4.90;;
57893;SDS011;43710;47.460;19.034;2024-03-22T16:13:38;6.22;;;5.00;;
57893;SDS011;43710;47.460;19.034;2024-03-22T16:16:40;7.00;;;4.40;;
57893;SDS011;43710;47.460;19.034;2024-03-22T16:19:42;7.07;;;4.70;;
57893;SDS011;43710;47.460;19.034;2024-03-22T16:22:43;6.62;;;5.00;;
57893;SDS011;43710;47.460;19.034;2024-03-22T16:25:44;9.65;;;4.35;;
57893;SDS011;43710;47.460;19.034;2024-03-22T16:28:46;6.32;;;4.50;;
57893;SDS011;43710;47.460;19.034;2024-03-22T16:31:47;8.10;;;4.70;;
57893;SDS011;43710;47.460;19.034;2024-03-22T16:34:49;8.27;;;4.82;;
57893;SDS011;43710;47.460;19.034;2024-03-22T16:37:50;6.90;;;4.80;;
57893;SDS011;43710;47.460;19.034;2024-03-22T16:40:52;10.10;;;5.62;;
57893;SDS011;43710;47.460;19.034;2024-03-22T16:43:53;7.53;;;5.62;;
57893;SDS011;43710;47.460;19.034;2024-03-22T16:46:55;9.43;;;5.15;;
57893;SDS011;43710;47.460;19.034;2024-03-22T16:49:57;7.40;;;5.00;;
57893;SDS011;43710;47.460;19.034;2024-03-22T16:52:58;9.82;;;5.37;;
57893;SDS011;43710;47.460;19.034;2024-03-22T16:56:00;6.68;;;5.03;;
